createdAt,value
2023-05-09T00:00:33.670Z,22.3
2023-05-09T00:15:32.736Z,22.3
2023-05-09T00:30:32.429Z,22.3
2023-05-09T00:45:32.729Z,22.3
2023-05-09T01:00:33.735Z,22.2
2023-05-09T01:15:32.576Z,22.2
2023-05-09T01:30:32.809Z,22.2
2023-05-09T01:45:32.168Z,22.1
2023-05-09T02:00:33.290Z,22.1
2023-05-09T02:15:32.152Z,22.1
2023-05-09T02:30:32.117Z,22.1
2023-05-09T02:45:32.723Z,22.0
2023-05-09T03:00:32.411Z,22
2023-05-09T03:15:32.185Z,22
2023-05-09T03:30:32.624Z,21.9
2023-05-09T03:45:31.872Z,21.9
2023-05-09T04:00:33.596Z,21.9
2023-05-09T04:15:32.699Z,21.9
2023-05-09T04:30:32.944Z,21.8
2023-05-09T04:45:32.507Z,21.8
2023-05-09T05:00:33.621Z,21.8
2023-05-09T05:15:32.474Z,21.8
2023-05-09T05:30:34.133Z,21.9
2023-05-09T05:45:32.599Z,22.0
2023-05-09T06:00:33.389Z,22.1
2023-05-09T06:15:32.881Z,22.2
2023-05-09T06:30:33.233Z,22.2
2023-05-09T06:45:33.670Z,22.3
2023-05-09T07:00:33.256Z,22.4
2023-05-09T07:15:41.033Z,22.4
2023-05-09T07:30:33.456Z,22.5
2023-05-09T07:45:32.617Z,22.5
2023-05-09T08:00:32.697Z,22.7
2023-05-09T08:15:33.173Z,22.7
2023-05-09T08:30:33.469Z,22.8
2023-05-09T08:45:32.790Z,22.9
2023-05-09T09:00:33.210Z,23.1
2023-05-09T09:15:32.044Z,23.1
2023-05-09T09:30:33.105Z,23.2
2023-05-09T09:45:31.989Z,23.2
2023-05-09T10:00:33.382Z,23.3
2023-05-09T15:45:32.412Z,24.9
2023-05-09T16:00:33.373Z,24.9
2023-05-09T16:15:32.774Z,25.1
2023-05-09T16:30:34.089Z,24.9
2023-05-09T16:45:32.331Z,24.9
2023-05-09T17:00:33.134Z,24.8
2023-05-09T17:15:32.869Z,24.7
2023-05-09T17:30:33.268Z,24.5
2023-05-09T17:45:33.539Z,24.4
2023-05-09T18:00:32.900Z,24.3
2023-05-09T18:15:32.331Z,24.3
2023-05-09T18:30:33.214Z,24.2
2023-05-09T18:45:32.011Z,24.1
2023-05-09T19:00:32.841Z,24.1
2023-05-09T19:15:32.240Z,23.9
2023-05-09T19:30:33.349Z,23.9
2023-05-09T19:45:32.680Z,23.8
2023-05-09T20:00:33.219Z,23.7
2023-05-09T20:15:32.184Z,23.6
2023-05-09T20:30:33.062Z,23.5
2023-05-09T20:45:32.897Z,23.4
2023-05-09T21:00:33.154Z,23.5
2023-05-09T21:15:32.168Z,23.4
2023-05-09T21:30:32.474Z,23.3
2023-05-09T21:45:31.962Z,23.3
2023-05-09T22:00:33.372Z,23.2
2023-05-09T22:15:32.494Z,23.2
2023-05-09T22:30:32.907Z,23.1
2023-05-09T22:45:32.853Z,23.1
2023-05-09T23:00:32.105Z,23.0
2023-05-09T23:15:32.550Z,23
2023-05-09T23:30:33.267Z,22.9
2023-05-09T23:45:32.816Z,22.9
